createdAt,value
2024-04-22T00:00:57.899Z,7.70
2024-04-22T00:03:27.701Z,10.70
2024-04-22T00:05:57.950Z,11.98
2024-04-22T00:08:25.169Z,11.40
2024-04-22T00:11:04.898Z,12.48
2024-04-22T00:13:33.668Z,11.80
2024-04-22T00:16:03.833Z,10.73
2024-04-22T00:18:33.771Z,11.07
2024-04-22T00:21:03.536Z,9.95
2024-04-22T00:23:30.736Z,7.72
2024-04-22T00:26:02.092Z,7.68
2024-04-22T00:28:29.343Z,7.18
2024-04-22T00:30:59.081Z,8.30
2024-04-22T00:33:26.295Z,6.85
2024-04-22T00:36:02.442Z,6.95
2024-04-22T00:38:30.834Z,8.02
2024-04-22T00:41:01.142Z,6.35
2024-04-22T00:43:28.389Z,7.13
2024-04-22T00:45:59.168Z,6.32
2024-04-22T00:48:26.719Z,5.78
2024-04-22T00:50:58.292Z,7.63
2024-04-22T00:53:28.606Z,7.07
2024-04-22T00:56:01.968Z,8.10
2024-04-22T00:58:30.656Z,7.82
2024-04-22T01:01:00.903Z,7.90
2024-04-22T01:03:28.824Z,6.20
2024-04-22T01:05:59.155Z,6.82
2024-04-22T01:08:28.949Z,6.68
2024-04-22T01:10:59.062Z,7.90
2024-04-22T01:13:26.340Z,7.93
2024-04-22T01:15:56.152Z,8.57
2024-04-22T01:18:23.285Z,7.78
2024-04-22T01:20:53.118Z,7.60
2024-04-22T01:23:22.910Z,8.60
2024-04-22T01:25:56.920Z,7.72
2024-04-22T01:28:24.190Z,9.20
2024-04-22T01:30:53.989Z,7.72
2024-04-22T01:33:21.284Z,8.40
2024-04-22T01:35:51.170Z,9.55
2024-04-22T01:38:18.332Z,10.13
2024-04-22T01:40:50.821Z,11.95
2024-04-22T01:43:18.058Z,10.25
2024-04-22T01:45:47.857Z,11.23
2024-04-22T01:48:15.057Z,11.18
2024-04-22T01:50:49.250Z,11.35
2024-04-22T01:53:16.407Z,12.50
2024-04-22T01:56:10.089Z,14.05
2024-04-22T01:58:37.370Z,13.40
2024-04-22T02:01:08.032Z,13.75
2024-04-22T02:03:35.247Z,13.35
2024-04-22T02:06:05.073Z,12.38
2024-04-22T02:08:32.201Z,12.18
2024-04-22T02:11:04.850Z,13.70
2024-04-22T02:13:32.136Z,13.38
2024-04-22T02:16:02.082Z,12.15
2024-04-22T02:18:29.754Z,12.73
2024-04-22T02:20:59.505Z,13.80
2024-04-22T02:23:26.633Z,13.52
2024-04-22T02:25:56.386Z,13.48
2024-04-22T02:28:26.184Z,14.32
2024-04-22T02:30:56.289Z,17.58
2024-04-22T02:33:23.912Z,16.27
2024-04-22T02:35:53.802Z,15.07
2024-04-22T02:38:21.041Z,13.38
2024-04-22T02:40:51.436Z,14.40
2024-04-22T02:43:18.612Z,14.95
2024-04-22T02:45:50.987Z,14.38
2024-04-22T02:48:18.233Z,12.68
2024-04-22T02:50:48.078Z,12.07
2024-04-22T02:53:15.350Z,15.00
2024-04-22T02:56:07.075Z,12.30
2024-04-22T02:58:34.267Z,12.25
2024-04-22T03:01:09.160Z,11.73
2024-04-22T03:03:36.402Z,12.88
2024-04-22T03:06:06.401Z,16.55
2024-04-22T03:08:33.575Z,14.50
2024-04-22T03:11:03.914Z,14.93
2024-04-22T03:13:31.207Z,15.88
2024-04-22T03:16:01.038Z,13.50
2024-04-22T03:18:30.802Z,14.07
2024-04-22T03:21:00.567Z,16.30
2024-04-22T03:23:29.198Z,15.23
2024-04-22T03:25:58.981Z,14.82
2024-04-22T03:28:26.117Z,14.90
2024-04-22T03:30:55.942Z,14.48
2024-04-22T03:33:23.192Z,15.57
2024-04-22T03:35:55.610Z,13.85
2024-04-22T03:38:25.338Z,13.88
2024-04-22T03:40:55.128Z,13.20
2024-04-22T03:43:25.004Z,17.95
2024-04-22T03:46:07.043Z,18.88
2024-04-22T03:48:52.477Z,15.65
2024-04-22T03:51:24.869Z,16.95
2024-04-22T03:53:54.661Z,17.70
2024-04-22T03:56:24.501Z,8.75
2024-04-22T03:58:54.260Z,10.75
2024-04-22T04:01:22.729Z,10.82
2024-04-22T04:03:52.605Z,11.23
2024-04-22T04:06:25.126Z,11.73
2024-04-22T04:08:52.292Z,12.00
2024-04-22T04:11:27.365Z,12.27
2024-04-22T04:13:54.791Z,14.25
2024-04-22T04:16:25.405Z,12.52
2024-04-22T04:18:52.658Z,11.77
2024-04-22T04:21:25.123Z,12.00
2024-04-22T04:23:52.235Z,11.30
2024-04-22T04:26:22.085Z,12.48
2024-04-22T04:28:49.501Z,11.63
2024-04-22T04:31:20.328Z,10.95
2024-04-22T04:33:47.486Z,12.75
2024-04-22T04:36:17.292Z,7.90
2024-04-22T04:38:47.047Z,8.13
2024-04-22T04:41:17.071Z,6.63
2024-04-22T04:43:44.302Z,9.02
2024-04-22T04:46:14.122Z,7.38
2024-04-22T04:48:41.399Z,7.22
2024-04-22T04:51:11.178Z,14.75
2024-04-22T04:53:38.300Z,7.65
2024-04-22T04:56:11.032Z,8.27
2024-04-22T04:58:38.272Z,7.18
2024-04-22T05:01:08.430Z,7.97
2024-04-22T05:03:35.683Z,7.32
2024-04-22T05:06:06.343Z,15.00
2024-04-22T05:08:33.512Z,7.28
2024-04-22T05:11:07.264Z,8.48
2024-04-22T05:13:37.077Z,8.27
2024-04-22T05:16:07.275Z,8.15
2024-04-22T05:18:34.572Z,8.63
2024-04-22T05:21:04.384Z,13.70
2024-04-22T05:23:31.578Z,8.02
2024-04-22T05:26:01.426Z,8.27
2024-04-22T05:28:28.834Z,9.85
2024-04-22T05:31:01.311Z,12.32
2024-04-22T05:33:46.903Z,11.07
2024-04-22T05:36:16.716Z,15.10
2024-04-22T05:38:47.871Z,17.02
2024-04-22T05:41:15.165Z,39.67
2024-04-22T05:43:45.032Z,21.77
2024-04-22T05:46:17.530Z,13.75
2024-04-22T05:48:47.301Z,17.52
2024-04-22T05:51:17.075Z,20.02
2024-04-22T05:53:44.550Z,18.73
2024-04-22T05:56:14.448Z,12.80
2024-04-22T05:58:42.154Z,13.75
2024-04-22T06:01:12.150Z,17.60
2024-04-22T06:03:41.970Z,13.02
2024-04-22T06:06:11.790Z,17.42
2024-04-22T06:08:38.926Z,14.07
2024-04-22T06:11:09.072Z,12.32
2024-04-22T06:13:36.302Z,14.48
2024-04-22T06:16:06.404Z,13.35
2024-04-22T06:18:33.564Z,15.90
2024-04-22T06:21:06.129Z,12.13
2024-04-22T06:23:33.827Z,15.20
2024-04-22T06:26:06.893Z,15.60
2024-04-22T06:28:34.265Z,15.00
2024-04-22T06:31:04.132Z,15.38
2024-04-22T06:33:31.654Z,15.73
2024-04-22T06:36:01.437Z,11.93
2024-04-22T06:38:32.291Z,17.45
2024-04-22T06:41:02.126Z,16.58
2024-04-22T06:43:29.334Z,17.73
2024-04-22T06:45:59.118Z,25.48
2024-04-22T06:48:26.310Z,16.42
2024-04-22T06:50:59.980Z,17.25
2024-04-22T06:53:28.651Z,14.70
2024-04-22T06:56:06.962Z,11.70
2024-04-22T06:58:34.180Z,14.57
2024-04-22T07:01:04.024Z,16.95
2024-04-22T07:03:31.242Z,15.13
2024-04-22T07:06:01.424Z,12.82
2024-04-22T07:08:28.544Z,11.38
2024-04-22T07:11:01.012Z,10.38
2024-04-22T07:13:28.155Z,13.60
2024-04-22T07:15:57.978Z,12.38
2024-04-22T07:18:25.122Z,14.25
2024-04-22T07:20:54.942Z,13.05
2024-04-22T07:23:22.121Z,9.98
2024-04-22T07:25:51.958Z,9.32
2024-04-22T07:28:22.488Z,9.63
2024-04-22T07:30:52.822Z,11.63
2024-04-22T07:33:20.605Z,10.43
2024-04-22T07:35:52.312Z,15.73
2024-04-22T07:38:24.545Z,10.20
2024-04-22T07:40:55.218Z,10.43
2024-04-22T07:43:25.055Z,15.48
2024-04-22T07:45:54.961Z,12.50
2024-04-22T07:48:22.291Z,15.52
2024-04-22T07:50:52.090Z,11.45
2024-04-22T07:53:19.737Z,9.35
2024-04-22T07:56:05.811Z,14.13
2024-04-22T07:58:36.492Z,12.18
2024-04-22T08:01:06.800Z,17.60
2024-04-22T08:03:34.481Z,12.90
2024-04-22T08:06:08.527Z,10.07
2024-04-22T08:08:39.698Z,10.52
2024-04-22T08:11:09.607Z,8.38
2024-04-22T08:13:39.580Z,8.25
2024-04-22T08:16:09.494Z,8.52
2024-04-22T08:18:36.680Z,9.18
2024-04-22T08:21:08.497Z,7.07
2024-04-22T08:23:37.720Z,6.25
2024-04-22T08:26:07.933Z,9.35
2024-04-22T08:28:35.135Z,6.05
2024-04-22T08:31:09.213Z,11.63
2024-04-22T08:33:36.552Z,7.82
2024-04-22T08:36:08.662Z,11.95
2024-04-22T08:38:37.498Z,10.60
2024-04-22T08:41:11.970Z,8.90
2024-04-22T08:43:39.196Z,6.22
2024-04-22T08:46:11.802Z,10.52
2024-04-22T08:48:39.901Z,5.68
2024-04-22T08:51:10.656Z,7.03
2024-04-22T08:53:37.830Z,16.00
2024-04-22T08:56:09.799Z,13.88
2024-04-22T08:58:37.377Z,6.50
2024-04-22T09:01:11.781Z,6.22
2024-04-22T09:03:39.077Z,6.43
2024-04-22T09:06:09.153Z,7.03
2024-04-22T09:08:43.163Z,8.07
2024-04-22T09:13:48.533Z,5.90
2024-04-22T09:16:21.495Z,5.70
2024-04-22T09:18:49.026Z,10.50
2024-04-22T09:21:20.877Z,17.45
2024-04-22T09:23:48.171Z,6.20
2024-04-22T09:26:18.324Z,7.57
2024-04-22T09:28:49.015Z,5.57
2024-04-22T09:31:22.796Z,17.95
2024-04-22T09:36:21.374Z,11.13
2024-04-22T09:38:51.183Z,6.15
2024-04-22T09:41:23.247Z,9.10
2024-04-22T09:43:57.099Z,6.53
2024-04-22T09:46:34.705Z,6.63
2024-04-22T09:51:32.922Z,6.95
2024-04-22T09:54:00.249Z,9.77
2024-04-22T09:56:34.492Z,11.23
2024-04-22T09:59:04.363Z,9.82
2024-04-22T10:01:37.163Z,7.10
2024-04-22T10:04:04.694Z,10.05
2024-04-22T10:06:35.963Z,6.70
2024-04-22T10:09:03.201Z,8.00
2024-04-22T10:11:34.786Z,5.93
2024-04-22T10:14:13.516Z,5.55
2024-04-22T10:16:57.143Z,6.85
2024-04-22T10:19:27.407Z,5.07
2024-04-22T10:21:59.875Z,6.53
2024-04-22T10:24:34.285Z,5.90
2024-04-22T10:27:09.800Z,8.10
2024-04-22T10:29:41.972Z,7.15
2024-04-22T10:32:11.833Z,11.70
2024-04-22T10:34:46.057Z,5.25
2024-04-22T10:37:13.860Z,5.57
2024-04-22T10:39:44.975Z,8.27
2024-04-22T10:42:12.841Z,13.20
2024-04-22T10:44:43.544Z,8.60
2024-04-22T10:47:13.739Z,5.68
2024-04-22T10:49:45.209Z,6.97
2024-04-22T10:52:12.467Z,9.70
2024-04-22T10:54:42.286Z,5.45
2024-04-22T10:57:09.733Z,7.72
2024-04-22T10:59:40.029Z,10.90
2024-04-22T11:02:08.759Z,7.40
2024-04-22T11:04:42.194Z,7.22
2024-04-22T11:07:09.468Z,10.17
2024-04-22T11:09:39.810Z,7.57
2024-04-22T11:12:08.392Z,6.22
2024-04-22T11:14:38.352Z,6.65
2024-04-22T11:17:05.841Z,5.00
2024-04-22T11:19:35.621Z,15.77
2024-04-22T11:22:07.079Z,7.35
2024-04-22T11:24:37.076Z,8.07
2024-04-22T11:27:04.886Z,8.68
2024-04-22T11:29:34.763Z,10.68
2024-04-22T11:32:02.573Z,5.32
2024-04-22T11:34:33.506Z,7.13
2024-04-22T11:37:02.774Z,5.30
2024-04-22T11:39:36.544Z,5.85
2024-04-22T11:42:03.760Z,5.35
2024-04-22T11:44:33.531Z,10.82
2024-04-22T11:47:00.878Z,10.82
2024-04-22T11:49:30.757Z,8.15
2024-04-22T11:51:57.977Z,7.10
2024-04-22T11:54:27.822Z,8.52
2024-04-22T11:56:57.590Z,7.30
2024-04-22T11:59:27.460Z,7.78
2024-04-22T12:01:54.750Z,6.60
2024-04-22T12:04:24.665Z,5.90
2024-04-22T12:06:51.895Z,8.13
2024-04-22T12:09:24.336Z,6.72
2024-04-22T12:11:51.576Z,10.15
2024-04-22T12:14:24.008Z,6.50
2024-04-22T12:16:51.546Z,7.72
2024-04-22T12:19:21.506Z,9.65
2024-04-22T12:21:48.740Z,12.70
2024-04-22T12:24:18.547Z,6.45
2024-04-22T12:26:45.723Z,6.50
2024-04-22T12:29:15.529Z,10.20
2024-04-22T12:31:45.394Z,7.13
2024-04-22T12:34:15.297Z,8.18
2024-04-22T12:36:42.881Z,7.78
2024-04-22T12:39:12.843Z,9.20
2024-04-22T12:41:40.132Z,14.68
2024-04-22T12:44:09.946Z,12.85
2024-04-22T12:46:57.825Z,9.32
2024-04-22T12:49:46.111Z,11.52
2024-04-22T12:52:18.808Z,5.40
2024-04-22T12:54:45.998Z,7.05
2024-04-22T12:57:15.943Z,6.70
2024-04-22T12:59:45.871Z,5.25
2024-04-22T13:02:16.603Z,7.25
2024-04-22T13:04:49.099Z,6.88
2024-04-22T13:07:18.978Z,7.38
2024-04-22T13:09:48.802Z,8.13
2024-04-22T13:12:16.011Z,8.15
2024-04-22T13:14:45.835Z,5.30
2024-04-22T13:17:15.679Z,5.47
2024-04-22T13:19:48.245Z,6.43
2024-04-22T13:22:15.473Z,5.78
2024-04-22T13:24:45.279Z,6.65
2024-04-22T13:27:12.459Z,4.43
2024-04-22T13:29:43.461Z,7.90
2024-04-22T13:32:16.279Z,7.18
2024-04-22T13:34:46.158Z,11.27
2024-04-22T13:37:16.013Z,14.75
2024-04-22T13:39:44.424Z,7.15
2024-04-22T13:42:14.211Z,6.53
2024-04-22T13:44:41.335Z,4.80
2024-04-22T13:47:11.124Z,3.22
2024-04-22T13:49:38.315Z,4.20
2024-04-22T13:52:10.999Z,2.97
2024-04-22T13:54:38.138Z,4.20
2024-04-22T13:57:08.288Z,3.78
2024-04-22T13:59:35.432Z,5.43
2024-04-22T14:02:05.420Z,5.07
2024-04-22T14:04:32.699Z,5.53
2024-04-22T14:07:05.709Z,6.57
2024-04-22T14:09:36.304Z,6.85
2024-04-22T14:12:06.291Z,5.05
2024-04-22T14:14:33.523Z,5.68
2024-04-22T14:17:05.453Z,3.42
2024-04-22T14:19:34.839Z,4.78
2024-04-22T14:22:04.607Z,3.33
2024-04-22T14:24:31.825Z,5.93
2024-04-22T14:27:04.359Z,5.57
2024-04-22T14:29:31.527Z,4.63
2024-04-22T14:32:01.287Z,4.57
2024-04-22T14:34:28.471Z,3.88
2024-04-22T14:36:58.240Z,5.32
2024-04-22T14:39:25.395Z,4.78
2024-04-22T14:41:55.125Z,5.60
2024-04-22T14:44:24.905Z,3.60
2024-04-22T14:46:54.716Z,5.88
2024-04-22T14:49:21.868Z,6.43
2024-04-22T14:51:51.643Z,3.17
2024-04-22T14:54:18.757Z,5.57
2024-04-22T14:56:48.565Z,4.18
2024-04-22T14:59:15.784Z,2.50
2024-04-22T15:01:48.247Z,4.10
2024-04-22T15:04:15.439Z,5.90
2024-04-22T15:06:46.336Z,2.45
2024-04-22T15:09:13.491Z,3.35
2024-04-22T15:11:43.316Z,2.90
2024-04-22T15:14:10.463Z,3.13
2024-04-22T15:16:40.262Z,5.20
2024-04-22T15:19:10.094Z,3.85
2024-04-22T15:21:39.954Z,5.75
2024-04-22T15:24:10.133Z,2.70
2024-04-22T15:26:39.917Z,3.45
2024-04-22T15:29:07.192Z,13.63
2024-04-22T15:31:37.028Z,4.70
2024-04-22T15:34:04.215Z,2.88
2024-04-22T15:36:36.674Z,3.22
2024-04-22T15:39:04.063Z,5.45
2024-04-22T15:41:34.231Z,3.85
2024-04-22T15:44:03.495Z,3.47
2024-04-22T15:46:33.342Z,2.00
2024-04-22T15:49:00.580Z,3.38
2024-04-22T15:51:30.360Z,6.53
2024-04-22T15:54:00.192Z,2.65
2024-04-22T15:56:29.982Z,6.93
2024-04-22T15:58:57.292Z,3.10
2024-04-22T16:01:27.739Z,2.22
2024-04-22T16:03:54.912Z,7.15
2024-04-22T16:06:24.707Z,2.88
2024-04-22T16:08:51.840Z,3.05
2024-04-22T16:11:24.254Z,3.92
2024-04-22T16:13:51.388Z,5.90
2024-04-22T16:16:21.352Z,4.47
2024-04-22T16:18:50.511Z,10.35
2024-04-22T16:21:20.349Z,2.13
2024-04-22T16:23:47.482Z,4.93
2024-04-22T16:26:19.217Z,2.45
2024-04-22T16:28:50.606Z,2.33
2024-04-22T16:31:21.717Z,3.33
2024-04-22T16:33:48.929Z,7.28
2024-04-22T16:36:18.711Z,5.40
2024-04-22T16:38:45.994Z,3.42
2024-04-22T16:41:15.776Z,7.35
2024-04-22T16:43:43.057Z,4.47
2024-04-22T16:46:15.457Z,2.83
2024-04-22T16:48:42.824Z,3.97
2024-04-22T16:51:12.742Z,4.22
2024-04-22T16:53:39.916Z,2.88
2024-04-22T16:56:09.997Z,3.80
2024-04-22T16:58:37.197Z,3.92
2024-04-22T17:01:07.490Z,3.95
2024-04-22T17:03:37.454Z,3.35
2024-04-22T17:06:07.334Z,3.03
2024-04-22T17:08:34.544Z,2.30
2024-04-22T17:11:07.668Z,3.95
2024-04-22T17:13:34.941Z,3.88
2024-04-22T17:16:04.865Z,2.60
2024-04-22T17:18:32.084Z,2.55
2024-04-22T17:21:04.593Z,3.95
2024-04-22T17:23:33.120Z,4.75
2024-04-22T17:26:03.065Z,5.80
2024-04-22T17:28:31.693Z,4.55
2024-04-22T17:31:01.479Z,3.10
2024-04-22T17:33:28.789Z,3.50
2024-04-22T17:35:58.675Z,5.05
2024-04-22T17:38:29.243Z,3.33
2024-04-22T17:41:00.285Z,6.50
2024-04-22T17:43:27.531Z,11.70
2024-04-22T17:46:04.581Z,7.82
2024-04-22T17:48:31.891Z,16.27
2024-04-22T17:51:02.294Z,5.40
2024-04-22T17:53:32.836Z,8.93
2024-04-22T17:56:02.793Z,3.17
2024-04-22T17:58:30.051Z,5.10
2024-04-22T18:00:59.907Z,6.32
2024-04-22T18:03:27.072Z,5.13
2024-04-22T18:05:56.899Z,14.57
2024-04-22T18:08:24.062Z,4.50
2024-04-22T18:10:57.722Z,5.57
2024-04-22T18:13:28.951Z,3.90
2024-04-22T18:15:59.233Z,3.42
2024-04-22T18:18:26.411Z,6.63
2024-04-22T18:20:56.296Z,7.25
2024-04-22T18:23:23.677Z,4.85
2024-04-22T18:26:02.182Z,5.97
2024-04-22T18:28:33.390Z,4.03
2024-04-22T18:31:03.183Z,4.05
2024-04-22T18:33:30.350Z,3.42
2024-04-22T18:36:00.994Z,8.07
2024-04-22T18:38:29.296Z,6.45
2024-04-22T18:41:01.847Z,8.63
2024-04-22T18:43:29.211Z,3.92
2024-04-22T18:45:59.016Z,5.82
2024-04-22T18:48:26.251Z,4.82
2024-04-22T18:50:58.836Z,3.30
2024-04-22T18:53:26.108Z,4.90
2024-04-22T18:56:03.967Z,4.25
2024-04-22T18:58:32.539Z,5.00
2024-04-22T19:01:02.513Z,10.50
2024-04-22T19:03:29.833Z,5.40
2024-04-22T19:05:59.681Z,5.68
2024-04-22T19:08:26.861Z,5.03
2024-04-22T19:10:57.043Z,3.85
2024-04-22T19:13:27.010Z,5.47
2024-04-22T19:15:56.798Z,7.43
2024-04-22T19:18:25.159Z,16.15
2024-04-22T19:20:55.062Z,7.82
2024-04-22T19:23:22.298Z,5.00
2024-04-22T19:25:52.154Z,4.78
2024-04-22T19:28:19.470Z,7.53
2024-04-22T19:30:54.045Z,8.25
2024-04-22T19:33:21.272Z,5.20
2024-04-22T19:35:53.985Z,5.25
2024-04-22T19:38:21.152Z,3.92
2024-04-22T19:40:51.064Z,5.32
2024-04-22T19:43:18.809Z,7.90
2024-04-22T19:45:51.298Z,3.75
2024-04-22T19:48:18.526Z,4.70
2024-04-22T19:50:48.761Z,3.25
2024-04-22T19:53:16.018Z,5.50
2024-04-22T19:56:07.657Z,8.45
2024-04-22T19:58:35.568Z,6.03
2024-04-22T20:01:08.310Z,6.65
2024-04-22T20:03:35.807Z,8.30
2024-04-22T20:06:05.815Z,6.88
2024-04-22T20:08:33.274Z,12.55
2024-04-22T20:11:07.336Z,5.45
2024-04-22T20:13:34.603Z,11.15
2024-04-22T20:16:16.117Z,5.90
2024-04-22T20:18:54.572Z,5.47
2024-04-22T20:21:24.475Z,7.38
2024-04-22T20:23:51.963Z,5.63
2024-04-22T20:26:21.718Z,10.20
2024-04-22T20:28:51.723Z,4.60
2024-04-22T20:31:24.394Z,6.80
2024-04-22T20:33:51.880Z,7.07
2024-04-22T20:36:23.704Z,7.57
2024-04-22T20:38:50.843Z,8.13
2024-04-22T20:41:20.663Z,5.28
2024-04-22T20:43:47.837Z,4.32
2024-04-22T20:46:17.665Z,5.00
2024-04-22T20:48:47.410Z,3.88
2024-04-22T20:51:17.314Z,5.43
2024-04-22T20:53:44.465Z,4.38
2024-04-22T20:56:14.301Z,7.93
2024-04-22T20:58:41.600Z,4.82
2024-04-22T21:01:12.466Z,6.85
2024-04-22T21:03:39.888Z,6.60
2024-04-22T21:06:12.355Z,7.40
2024-04-22T21:08:39.522Z,6.93
2024-04-22T21:11:09.487Z,7.75
2024-04-22T21:13:43.100Z,5.45
2024-04-22T21:16:13.349Z,7.53
2024-04-22T21:18:40.736Z,5.57
2024-04-22T21:21:13.226Z,7.35
2024-04-22T21:23:40.469Z,7.90
2024-04-22T21:26:10.278Z,13.00
2024-04-22T21:28:37.736Z,6.28
2024-04-22T21:31:09.329Z,7.57
2024-04-22T21:33:50.777Z,6.75
2024-04-22T21:36:28.901Z,5.35
2024-04-22T21:38:56.040Z,6.28
2024-04-22T21:41:27.038Z,7.38
2024-04-22T21:43:54.342Z,5.40
2024-04-22T21:46:24.266Z,6.22
2024-04-22T21:48:51.507Z,7.15
2024-04-22T21:51:21.408Z,6.50
2024-04-22T21:53:51.314Z,6.00
2024-04-22T21:56:21.172Z,5.75
2024-04-22T21:59:28.395Z,12.23
2024-04-22T22:02:32.855Z,10.70
2024-04-22T22:05:40.086Z,10.80
2024-04-22T22:08:10.307Z,5.45
2024-04-22T22:10:44.430Z,9.25
2024-04-22T22:15:41.399Z,9.30
2024-04-22T22:18:09.254Z,6.20
2024-04-22T22:20:39.400Z,8.68
2024-04-22T22:23:06.630Z,10.93
2024-04-22T22:25:36.468Z,7.18
2024-04-22T22:28:07.062Z,13.73
2024-04-22T22:30:36.884Z,10.43
2024-04-22T22:33:04.200Z,6.95
2024-04-22T22:35:33.992Z,7.40
2024-04-22T22:38:01.175Z,6.70
2024-04-22T22:40:30.966Z,10.90
2024-04-22T22:42:58.175Z,8.25
2024-04-22T22:45:31.311Z,6.72
2024-04-22T22:47:58.704Z,10.43
2024-04-22T22:50:28.579Z,7.78
2024-04-22T22:52:55.792Z,7.32
2024-04-22T22:55:25.655Z,11.55
2024-04-22T22:57:52.823Z,7.07
2024-04-22T23:00:22.630Z,11.93
2024-04-22T23:02:52.595Z,17.20
2024-04-22T23:05:22.401Z,16.35
2024-04-22T23:07:49.681Z,11.80
2024-04-22T23:10:19.483Z,9.80
2024-04-22T23:12:46.655Z,16.33
2024-04-22T23:15:16.616Z,11.82
2024-04-22T23:17:43.748Z,12.13
2024-04-22T23:20:16.253Z,8.95
2024-04-22T23:22:43.591Z,10.82
2024-04-22T23:25:13.491Z,15.63
2024-04-22T23:27:41.873Z,9.57
2024-04-22T23:30:12.320Z,11.52
2024-04-22T23:32:39.498Z,8.63
2024-04-22T23:35:09.894Z,6.30
2024-04-22T23:37:39.823Z,5.00
2024-04-22T23:40:10.676Z,7.35
2024-04-22T23:42:37.800Z,10.85
2024-04-22T23:45:08.270Z,6.28
2024-04-22T23:47:54.490Z,5.20
2024-04-22T23:50:24.419Z,8.13
2024-04-22T23:52:54.525Z,8.05
2024-04-22T23:55:24.332Z,7.55
2024-04-22T23:57:51.512Z,6.85
